sensor_id;sensor_type;location;lat;lon;timestamp;P1;durP1;ratioP1;P2;durP2;ratioP2
62256;SDS011;48240;52.962;5.790;2023-02-28T04:51:19;2.83;;;1.23;;
62256;SDS011;48240;52.962;5.790;2023-02-28T04:53:46;3.25;;;1.55;;
62256;SDS011;48240;52.962;5.790;2023-02-28T04:56:13;3.35;;;1.30;;
62256;SDS011;48240;52.962;5.790;2023-02-28T04:58:39;3.58;;;1.55;;
62256;SDS011;48240;52.962;5.790;2023-02-28T05:01:06;1.92;;;1.05;;
62256;SDS011;48240;52.962;5.790;2023-02-28T05:03:40;2.13;;;1.30;;
62256;SDS011;48240;52.962;5.790;2023-02-28T05:06:07;2.80;;;1.40;;
62256;SDS011;48240;52.962;5.790;2023-02-28T05:08:33;3.35;;;1.30;;
62256;SDS011;48240;52.962;5.790;2023-02-28T05:11:00;2.05;;;1.13;;
62256;SDS011;48240;52.962;5.790;2023-02-28T05:13:26;4.03;;;1.30;;
62256;SDS011;48240;52.962;5.790;2023-02-28T05:15:52;3.55;;;1.45;;
62256;SDS011;48240;52.962;5.790;2023-02-28T05:18:19;3.17;;;1.25;;
62256;SDS011;48240;52.962;5.790;2023-02-28T05:20:45;2.35;;;1.25;;
62256;SDS011;48240;52.962;5.790;2023-02-28T05:23:12;2.75;;;1.17;;
62256;SDS011;48240;52.962;5.790;2023-02-28T05:25:38;2.35;;;1.05;;
62256;SDS011;48240;52.962;5.790;2023-02-28T05:28:04;3.30;;;1.40;;
62256;SDS011;48240;52.962;5.790;2023-02-28T05:30:30;1.75;;;1.10;;
62256;SDS011;48240;52.962;5.790;2023-02-28T05:32:57;2.10;;;1.10;;
62256;SDS011;48240;52.962;5.790;2023-02-28T05:35:23;2.33;;;1.02;;
62256;SDS011;48240;52.962;5.790;2023-02-28T05:37:49;2.03;;;0.90;;
62256;SDS011;48240;52.962;5.790;2023-02-28T05:40:16;3.30;;;1.20;;
62256;SDS011;48240;52.962;5.790;2023-02-28T05:42:42;1.92;;;1.20;;
62256;SDS011;48240;52.962;5.790;2023-02-28T05:45:09;2.25;;;1.20;;
62256;SDS011;48240;52.962;5.790;2023-02-28T05:47:35;2.63;;;1.30;;
62256;SDS011;48240;52.962;5.790;2023-02-28T05:50:01;1.80;;;1.20;;
62256;SDS011;48240;52.962;5.790;2023-02-28T05:52:28;2.75;;;1.50;;
62256;SDS011;48240;52.962;5.790;2023-02-28T05:54:57;2.00;;;1.30;;
62256;SDS011;48240;52.962;5.790;2023-02-28T05:57:23;2.58;;;1.40;;
62256;SDS011;48240;52.962;5.790;2023-02-28T05:59:49;2.28;;;1.20;;
62256;SDS011;48240;52.962;5.790;2023-02-28T06:02:16;1.48;;;1.00;;
62256;SDS011;48240;52.962;5.790;2023-02-28T06:04:43;1.77;;;1.20;;
62256;SDS011;48240;52.962;5.790;2023-02-28T06:07:09;2.15;;;1.35;;
62256;SDS011;48240;52.962;5.790;2023-02-28T06:09:36;2.45;;;1.33;;
62256;SDS011;48240;52.962;5.790;2023-02-28T06:12:03;1.85;;;1.20;;
62256;SDS011;48240;52.962;5.790;2023-02-28T06:14:31;1.80;;;1.20;;
62256;SDS011;48240;52.962;5.790;2023-02-28T06:16:57;1.60;;;1.20;;
62256;SDS011;48240;52.962;5.790;2023-02-28T06:19:23;2.03;;;1.23;;
62256;SDS011;48240;52.962;5.790;2023-02-28T06:21:54;1.40;;;1.10;;
62256;SDS011;48240;52.962;5.790;2023-02-28T06:24:20;2.00;;;1.30;;
62256;SDS011;48240;52.962;5.790;2023-02-28T06:26:46;1.48;;;1.27;;
62256;SDS011;48240;52.962;5.790;2023-02-28T06:29:13;1.65;;;1.00;;
62256;SDS011;48240;52.962;5.790;2023-02-28T06:31:46;3.50;;;1.13;;
62256;SDS011;48240;52.962;5.790;2023-02-28T06:34:13;3.20;;;1.40;;
62256;SDS011;48240;52.962;5.790;2023-02-28T06:36:40;1.88;;;1.00;;
62256;SDS011;48240;52.962;5.790;2023-02-28T06:39:06;1.65;;;1.17;;
62256;SDS011;48240;52.962;5.790;2023-02-28T06:41:33;7.28;;;5.30;;
62256;SDS011;48240;52.962;5.790;2023-02-28T06:44:10;9.43;;;5.78;;
62256;SDS011;48240;52.962;5.790;2023-02-28T06:46:40;8.25;;;6.20;;
62256;SDS011;48240;52.962;5.790;2023-02-28T06:49:06;8.48;;;6.30;;
62256;SDS011;48240;52.962;5.790;2023-02-28T06:51:33;8.70;;;6.60;;
62256;SDS011;48240;52.962;5.790;2023-02-28T06:54:00;8.77;;;6.97;;
62256;SDS011;48240;52.962;5.790;2023-02-28T06:56:26;8.80;;;7.28;;
62256;SDS011;48240;52.962;5.790;2023-02-28T06:58:52;9.63;;;7.63;;
62256;SDS011;48240;52.962;5.790;2023-02-28T07:01:19;10.48;;;8.00;;
62256;SDS011;48240;52.962;5.790;2023-02-28T07:03:46;10.43;;;7.90;;
62256;SDS011;48240;52.962;5.790;2023-02-28T07:06:17;16.38;;;8.05;;
62256;SDS011;48240;52.962;5.790;2023-02-28T07:08:43;7.13;;;5.63;;
62256;SDS011;48240;52.962;5.790;2023-02-28T07:11:09;6.78;;;4.82;;
62256;SDS011;48240;52.962;5.790;2023-02-28T07:13:36;5.90;;;4.30;;
62256;SDS011;48240;52.962;5.790;2023-02-28T07:16:05;6.25;;;4.35;;
62256;SDS011;48240;52.962;5.790;2023-02-28T07:18:34;5.15;;;4.10;;
62256;SDS011;48240;52.962;5.790;2023-02-28T07:21:06;6.80;;;3.70;;
62256;SDS011;48240;52.962;5.790;2023-02-28T07:23:33;3.97;;;3.28;;
62256;SDS011;48240;52.962;5.790;2023-02-28T07:25:59;4.30;;;2.72;;
62256;SDS011;48240;52.962;5.790;2023-02-28T07:28:25;5.78;;;2.92;;
62256;SDS011;48240;52.962;5.790;2023-02-28T07:30:51;4.00;;;2.80;;
62256;SDS011;48240;52.962;5.790;2023-02-28T07:33:17;4.40;;;2.70;;
62256;SDS011;48240;52.962;5.790;2023-02-28T07:35:43;5.43;;;2.42;;
62256;SDS011;48240;52.962;5.790;2023-02-28T07:38:10;4.70;;;2.72;;
62256;SDS011;48240;52.962;5.790;2023-02-28T07:40:36;3.47;;;2.10;;
62256;SDS011;48240;52.962;5.790;2023-02-28T07:43:02;3.80;;;2.20;;
62256;SDS011;48240;52.962;5.790;2023-02-28T07:45:29;3.53;;;1.80;;
62256;SDS011;48240;52.962;5.790;2023-02-28T07:47:56;3.00;;;2.10;;
62256;SDS011;48240;52.962;5.790;2023-02-28T07:50:23;3.95;;;1.90;;
62256;SDS011;48240;52.962;5.790;2023-02-28T07:52:49;3.00;;;2.05;;
62256;SDS011;48240;52.962;5.790;2023-02-28T07:55:15;3.90;;;2.10;;
62256;SDS011;48240;52.962;5.790;2023-02-28T07:57:41;3.15;;;1.90;;
62256;SDS011;48240;52.962;5.790;2023-02-28T08:00:09;3.75;;;2.47;;
62256;SDS011;48240;52.962;5.790;2023-02-28T08:02:35;2.60;;;1.75;;
62256;SDS011;48240;52.962;5.790;2023-02-28T08:05:02;2.58;;;1.65;;
62256;SDS011;48240;52.962;5.790;2023-02-28T08:07:28;3.13;;;1.90;;
62256;SDS011;48240;52.962;5.790;2023-02-28T08:09:54;2.40;;;1.90;;
62256;SDS011;48240;52.962;5.790;2023-02-28T08:12:20;3.25;;;2.13;;
62256;SDS011;48240;52.962;5.790;2023-02-28T08:14:46;3.88;;;2.03;;
62256;SDS011;48240;52.962;5.790;2023-02-28T08:17:12;2.85;;;1.60;;
62256;SDS011;48240;52.962;5.790;2023-02-28T08:19:38;2.83;;;1.70;;
62256;SDS011;48240;52.962;5.790;2023-02-28T08:22:05;2.47;;;1.63;;
62256;SDS011;48240;52.962;5.790;2023-02-28T08:24:31;2.17;;;1.50;;
62256;SDS011;48240;52.962;5.790;2023-02-28T08:26:58;2.40;;;1.48;;
62256;SDS011;48240;52.962;5.790;2023-02-28T08:29:24;2.13;;;1.55;;
62256;SDS011;48240;52.962;5.790;2023-02-28T08:31:50;2.28;;;1.27;;
62256;SDS011;48240;52.962;5.790;2023-02-28T08:34:16;1.77;;;1.52;;
62256;SDS011;48240;52.962;5.790;2023-02-28T08:36:43;1.95;;;1.20;;
62256;SDS011;48240;52.962;5.790;2023-02-28T08:39:10;3.10;;;1.42;;
62256;SDS011;48240;52.962;5.790;2023-02-28T08:41:37;2.72;;;1.42;;
62256;SDS011;48240;52.962;5.790;2023-02-28T08:44:03;2.05;;;1.48;;
62256;SDS011;48240;52.962;5.790;2023-02-28T08:46:29;3.22;;;1.30;;
62256;SDS011;48240;52.962;5.790;2023-02-28T08:48:56;2.47;;;1.40;;
62256;SDS011;48240;52.962;5.790;2023-02-28T08:53:53;1.98;;;1.10;;
62256;SDS011;48240;52.962;5.790;2023-02-28T08:56:20;2.10;;;1.10;;
62256;SDS011;48240;52.962;5.790;2023-02-28T08:58:46;1.40;;;0.95;;
62256;SDS011;48240;52.962;5.790;2023-02-28T09:01:14;1.80;;;1.00;;
62256;SDS011;48240;52.962;5.790;2023-02-28T09:03:41;1.40;;;1.00;;
62256;SDS011;48240;52.962;5.790;2023-02-28T09:06:08;2.53;;;1.10;;
62256;SDS011;48240;52.962;5.790;2023-02-28T09:08:35;1.35;;;1.00;;
62256;SDS011;48240;52.962;5.790;2023-02-28T09:11:02;1.48;;;1.02;;
62256;SDS011;48240;52.962;5.790;2023-02-28T09:13:28;1.23;;;0.90;;
62256;SDS011;48240;52.962;5.790;2023-02-28T09:15:56;1.60;;;0.90;;
62256;SDS011;48240;52.962;5.790;2023-02-28T09:18:23;1.30;;;1.00;;
62256;SDS011;48240;52.962;5.790;2023-02-28T09:20:49;1.25;;;1.05;;
62256;SDS011;48240;52.962;5.790;2023-02-28T09:23:15;3.22;;;1.40;;
62256;SDS011;48240;52.962;5.790;2023-02-28T09:25:48;2.13;;;1.02;;
62256;SDS011;48240;52.962;5.790;2023-02-28T09:28:14;1.33;;;1.05;;
62256;SDS011;48240;52.962;5.790;2023-02-28T09:30:42;1.27;;;1.15;;
62256;SDS011;48240;52.962;5.790;2023-02-28T09:33:08;1.80;;;1.13;;
62256;SDS011;48240;52.962;5.790;2023-02-28T09:35:34;1.92;;;1.30;;
62256;SDS011;48240;52.962;5.790;2023-02-28T09:38:02;3.28;;;1.00;;
62256;SDS011;48240;52.962;5.790;2023-02-28T09:40:28;1.90;;;1.00;;
62256;SDS011;48240;52.962;5.790;2023-02-28T09:42:55;1.58;;;1.08;;
62256;SDS011;48240;52.962;5.790;2023-02-28T09:45:24;1.20;;;1.10;;
62256;SDS011;48240;52.962;5.790;2023-02-28T09:47:53;1.08;;;0.90;;
62256;SDS011;48240;52.962;5.790;2023-02-28T09:50:23;3.22;;;1.10;;
62256;SDS011;48240;52.962;5.790;2023-02-28T09:52:52;1.73;;;1.15;;
62256;SDS011;48240;52.962;5.790;2023-02-28T09:55:26;1.95;;;1.20;;
62256;SDS011;48240;52.962;5.790;2023-02-28T09:57:54;1.30;;;1.20;;
62256;SDS011;48240;52.962;5.790;2023-02-28T10:02:53;1.83;;;1.20;;
62256;SDS011;48240;52.962;5.790;2023-02-28T10:05:24;2.92;;;1.20;;
62256;SDS011;48240;52.962;5.790;2023-02-28T10:08:03;1.30;;;0.90;;
62256;SDS011;48240;52.962;5.790;2023-02-28T10:13:00;3.40;;;1.50;;
62256;SDS011;48240;52.962;5.790;2023-02-28T10:15:27;1.80;;;1.15;;
62256;SDS011;48240;52.962;5.790;2023-02-28T10:17:57;1.45;;;1.00;;
62256;SDS011;48240;52.962;5.790;2023-02-28T10:20:24;3.55;;;1.23;;
62256;SDS011;48240;52.962;5.790;2023-02-28T10:25:39;1.63;;;1.02;;
62256;SDS011;48240;52.962;5.790;2023-02-28T10:28:12;1.88;;;1.08;;
62256;SDS011;48240;52.962;5.790;2023-02-28T10:30:42;1.20;;;1.02;;
62256;SDS011;48240;52.962;5.790;2023-02-28T10:33:20;1.70;;;1.25;;
62256;SDS011;48240;52.962;5.790;2023-02-28T10:35:47;2.75;;;1.20;;
62256;SDS011;48240;52.962;5.790;2023-02-28T10:38:55;1.88;;;1.33;;
62256;SDS011;48240;52.962;5.790;2023-02-28T10:41:10;1.10;;;0.82;;
62256;SDS011;48240;52.962;5.790;2023-02-28T10:43:37;2.05;;;0.90;;
62256;SDS011;48240;52.962;5.790;2023-02-28T10:46:09;2.38;;;1.20;;
62256;SDS011;48240;52.962;5.790;2023-02-28T10:48:59;2.53;;;1.17;;
62256;SDS011;48240;52.962;5.790;2023-02-28T10:51:26;2.50;;;1.30;;
62256;SDS011;48240;52.962;5.790;2023-02-28T10:54:00;1.92;;;1.05;;
62256;SDS011;48240;52.962;5.790;2023-02-28T10:56:26;1.45;;;1.00;;
62256;SDS011;48240;52.962;5.790;2023-02-28T10:58:56;1.88;;;1.00;;
62256;SDS011;48240;52.962;5.790;2023-02-28T11:01:24;2.28;;;1.00;;
62256;SDS011;48240;52.962;5.790;2023-02-28T11:03:51;2.78;;;0.90;;
62256;SDS011;48240;52.962;5.790;2023-02-28T11:08:53;1.77;;;1.00;;
62256;SDS011;48240;52.962;5.790;2023-02-28T11:11:20;1.70;;;1.00;;
62256;SDS011;48240;52.962;5.790;2023-02-28T11:13:50;1.95;;;1.20;;
62256;SDS011;48240;52.962;5.790;2023-02-28T11:16:17;2.35;;;0.90;;
62256;SDS011;48240;52.962;5.790;2023-02-28T11:18:53;2.92;;;1.40;;
62256;SDS011;48240;52.962;5.790;2023-02-28T11:21:29;2.53;;;1.00;;
62256;SDS011;48240;52.962;5.790;2023-02-28T11:24:02;1.23;;;0.88;;
62256;SDS011;48240;52.962;5.790;2023-02-28T11:29:29;3.22;;;1.30;;
62256;SDS011;48240;52.962;5.790;2023-02-28T11:32:01;2.60;;;1.08;;
62256;SDS011;48240;52.962;5.790;2023-02-28T11:34:27;1.85;;;1.20;;
62256;SDS011;48240;52.962;5.790;2023-02-28T11:36:54;2.13;;;1.15;;
62256;SDS011;48240;52.962;5.790;2023-02-28T11:39:21;1.00;;;0.82;;
62256;SDS011;48240;52.962;5.790;2023-02-28T11:55:11;4.55;;;1.35;;
62256;SDS011;48240;52.962;5.790;2023-02-28T12:05:44;5.57;;;2.10;;
62256;SDS011;48240;52.962;5.790;2023-02-28T12:10:57;3.45;;;2.20;;
62256;SDS011;48240;52.962;5.790;2023-02-28T12:13:29;3.40;;;1.95;;
62256;SDS011;48240;52.962;5.790;2023-02-28T12:21:15;6.28;;;2.30;;
62256;SDS011;48240;52.962;5.790;2023-02-28T12:29:03;4.88;;;2.30;;
62256;SDS011;48240;52.962;5.790;2023-02-28T12:31:30;5.13;;;2.58;;
62256;SDS011;48240;52.962;5.790;2023-02-28T12:34:05;6.47;;;2.67;;
62256;SDS011;48240;52.962;5.790;2023-02-28T12:36:32;4.75;;;2.40;;
62256;SDS011;48240;52.962;5.790;2023-02-28T12:39:03;5.03;;;2.58;;
62256;SDS011;48240;52.962;5.790;2023-02-28T12:44:03;4.72;;;2.75;;
62256;SDS011;48240;52.962;5.790;2023-02-28T12:46:35;3.80;;;2.40;;
62256;SDS011;48240;52.962;5.790;2023-02-28T12:49:05;4.95;;;2.65;;
62256;SDS011;48240;52.962;5.790;2023-02-28T12:51:32;5.15;;;2.70;;
62256;SDS011;48240;52.962;5.790;2023-02-28T12:54:10;3.85;;;2.30;;
62256;SDS011;48240;52.962;5.790;2023-02-28T12:59:14;5.85;;;2.50;;
62256;SDS011;48240;52.962;5.790;2023-02-28T13:09:32;4.03;;;2.30;;
62256;SDS011;48240;52.962;5.790;2023-02-28T13:11:59;4.43;;;2.28;;
62256;SDS011;48240;52.962;5.790;2023-02-28T13:19:20;4.68;;;1.85;;
62256;SDS011;48240;52.962;5.790;2023-02-28T13:21:48;8.45;;;1.98;;
62256;SDS011;48240;52.962;5.790;2023-02-28T13:29:27;5.97;;;2.20;;
62256;SDS011;48240;52.962;5.790;2023-02-28T13:47:42;3.78;;;2.20;;
62256;SDS011;48240;52.962;5.790;2023-02-28T13:55:27;4.38;;;2.50;;
62256;SDS011;48240;52.962;5.790;2023-02-28T13:58:19;6.60;;;2.50;;
62256;SDS011;48240;52.962;5.790;2023-02-28T14:03:36;4.65;;;2.60;;
62256;SDS011;48240;52.962;5.790;2023-02-28T14:06:15;5.78;;;2.10;;
62256;SDS011;48240;52.962;5.790;2023-02-28T14:09:45;3.72;;;1.90;;
62256;SDS011;48240;52.962;5.790;2023-02-28T14:11:39;4.10;;;1.92;;
62256;SDS011;48240;52.962;5.790;2023-02-28T14:14:06;3.70;;;1.90;;
62256;SDS011;48240;52.962;5.790;2023-02-28T14:16:39;4.57;;;1.80;;
62256;SDS011;48240;52.962;5.790;2023-02-28T14:21:36;4.00;;;1.80;;
62256;SDS011;48240;52.962;5.790;2023-02-28T14:24:16;3.15;;;1.85;;
62256;SDS011;48240;52.962;5.790;2023-02-28T14:26:53;5.32;;;1.85;;
62256;SDS011;48240;52.962;5.790;2023-02-28T14:32:10;2.78;;;1.77;;
62256;SDS011;48240;52.962;5.790;2023-02-28T14:37:37;3.30;;;1.80;;
62256;SDS011;48240;52.962;5.790;2023-02-28T14:40:11;3.55;;;1.50;;
62256;SDS011;48240;52.962;5.790;2023-02-28T14:42:37;3.78;;;1.75;;
62256;SDS011;48240;52.962;5.790;2023-02-28T14:45:16;3.97;;;1.98;;
62256;SDS011;48240;52.962;5.790;2023-02-28T14:47:43;3.97;;;1.75;;
62256;SDS011;48240;52.962;5.790;2023-02-28T14:50:17;3.17;;;2.08;;
62256;SDS011;48240;52.962;5.790;2023-02-28T14:52:43;3.40;;;1.63;;
62256;SDS011;48240;52.962;5.790;2023-02-28T14:55:12;2.60;;;1.50;;
62256;SDS011;48240;52.962;5.790;2023-02-28T14:58:41;4.70;;;1.40;;
62256;SDS011;48240;52.962;5.790;2023-02-28T15:00:39;2.83;;;1.40;;
62256;SDS011;48240;52.962;5.790;2023-02-28T15:03:17;3.28;;;1.67;;
62256;SDS011;48240;52.962;5.790;2023-02-28T15:05:51;2.10;;;1.55;;
62256;SDS011;48240;52.962;5.790;2023-02-28T15:08:17;3.60;;;1.60;;
62256;SDS011;48240;52.962;5.790;2023-02-28T15:11:06;4.15;;;1.77;;
62256;SDS011;48240;52.962;5.790;2023-02-28T15:13:35;2.88;;;1.38;;
62256;SDS011;48240;52.962;5.790;2023-02-28T15:16:03;2.30;;;1.75;;
62256;SDS011;48240;52.962;5.790;2023-02-28T15:21:52;3.05;;;1.70;;
62256;SDS011;48240;52.962;5.790;2023-02-28T15:23:53;2.22;;;1.45;;
62256;SDS011;48240;52.962;5.790;2023-02-28T15:26:21;4.32;;;1.63;;
62256;SDS011;48240;52.962;5.790;2023-02-28T15:28:52;3.38;;;1.60;;
62256;SDS011;48240;52.962;5.790;2023-02-28T15:31:35;2.47;;;1.38;;
62256;SDS011;48240;52.962;5.790;2023-02-28T15:34:04;2.67;;;1.40;;
62256;SDS011;48240;52.962;5.790;2023-02-28T15:36:31;2.05;;;1.40;;
62256;SDS011;48240;52.962;5.790;2023-02-28T15:38:59;2.13;;;1.23;;
62256;SDS011;48240;52.962;5.790;2023-02-28T15:41:35;2.15;;;1.35;;
62256;SDS011;48240;52.962;5.790;2023-02-28T15:49:24;1.98;;;1.40;;
62256;SDS011;48240;52.962;5.790;2023-02-28T15:51:52;3.13;;;1.42;;
62256;SDS011;48240;52.962;5.790;2023-02-28T15:54:29;3.08;;;1.33;;
62256;SDS011;48240;52.962;5.790;2023-02-28T15:56:56;3.05;;;1.40;;
62256;SDS011;48240;52.962;5.790;2023-02-28T15:59:23;3.22;;;1.38;;
62256;SDS011;48240;52.962;5.790;2023-02-28T16:04:35;3.03;;;1.38;;
62256;SDS011;48240;52.962;5.790;2023-02-28T16:07:03;3.15;;;1.30;;
62256;SDS011;48240;52.962;5.790;2023-02-28T16:09:29;2.63;;;1.15;;
62256;SDS011;48240;52.962;5.790;2023-02-28T16:11:58;1.95;;;1.20;;
62256;SDS011;48240;52.962;5.790;2023-02-28T16:14:26;2.40;;;1.25;;
62256;SDS011;48240;52.962;5.790;2023-02-28T16:16:56;3.33;;;1.55;;
62256;SDS011;48240;52.962;5.790;2023-02-28T16:19:23;1.40;;;1.08;;
62256;SDS011;48240;52.962;5.790;2023-02-28T16:21:49;2.90;;;1.30;;
62256;SDS011;48240;52.962;5.790;2023-02-28T16:24:16;4.68;;;1.63;;
62256;SDS011;48240;52.962;5.790;2023-02-28T16:26:42;3.35;;;1.40;;
62256;SDS011;48240;52.962;5.790;2023-02-28T16:29:16;3.85;;;1.20;;
62256;SDS011;48240;52.962;5.790;2023-02-28T16:31:45;4.03;;;1.50;;
62256;SDS011;48240;52.962;5.790;2023-02-28T16:34:11;2.95;;;1.70;;
62256;SDS011;48240;52.962;5.790;2023-02-28T16:36:38;2.33;;;1.60;;
62256;SDS011;48240;52.962;5.790;2023-02-28T16:39:04;3.55;;;1.38;;
62256;SDS011;48240;52.962;5.790;2023-02-28T16:41:30;3.33;;;1.48;;
62256;SDS011;48240;52.962;5.790;2023-02-28T16:43:56;1.83;;;1.23;;
62256;SDS011;48240;52.962;5.790;2023-02-28T16:46:30;5.72;;;2.00;;
62256;SDS011;48240;52.962;5.790;2023-02-28T16:48:56;2.45;;;1.58;;
62256;SDS011;48240;52.962;5.790;2023-02-28T16:51:23;5.10;;;2.10;;
62256;SDS011;48240;52.962;5.790;2023-02-28T16:53:49;2.08;;;1.48;;
62256;SDS011;48240;52.962;5.790;2023-02-28T16:56:19;10.35;;;2.00;;
62256;SDS011;48240;52.962;5.790;2023-02-28T16:58:45;4.15;;;1.90;;
62256;SDS011;48240;52.962;5.790;2023-02-28T17:01:12;6.25;;;1.58;;
62256;SDS011;48240;52.962;5.790;2023-02-28T17:03:38;3.55;;;1.35;;
62256;SDS011;48240;52.962;5.790;2023-02-28T17:06:12;3.13;;;1.75;;
62256;SDS011;48240;52.962;5.790;2023-02-28T17:08:39;3.83;;;1.55;;
62256;SDS011;48240;52.962;5.790;2023-02-28T17:11:05;4.93;;;1.90;;
62256;SDS011;48240;52.962;5.790;2023-02-28T17:13:31;1.73;;;1.30;;
62256;SDS011;48240;52.962;5.790;2023-02-28T17:15:59;3.22;;;1.60;;
62256;SDS011;48240;52.962;5.790;2023-02-28T17:18:25;3.50;;;1.48;;
62256;SDS011;48240;52.962;5.790;2023-02-28T17:20:53;3.20;;;1.30;;
62256;SDS011;48240;52.962;5.790;2023-02-28T17:23:19;3.67;;;1.50;;
62256;SDS011;48240;52.962;5.790;2023-02-28T17:25:46;2.00;;;1.58;;
62256;SDS011;48240;52.962;5.790;2023-02-28T17:28:18;3.55;;;1.20;;
62256;SDS011;48240;52.962;5.790;2023-02-28T17:30:45;2.50;;;1.50;;
62256;SDS011;48240;52.962;5.790;2023-02-28T17:33:12;4.50;;;1.60;;
62256;SDS011;48240;52.962;5.790;2023-02-28T17:35:38;4.18;;;1.58;;
62256;SDS011;48240;52.962;5.790;2023-02-28T17:38:04;22.80;;;16.67;;
62256;SDS011;48240;52.962;5.790;2023-02-28T17:40:31;12.85;;;7.40;;
62256;SDS011;48240;52.962;5.790;2023-02-28T17:42:58;7.43;;;3.78;;
62256;SDS011;48240;52.962;5.790;2023-02-28T17:45:25;8.57;;;3.85;;
62256;SDS011;48240;52.962;5.790;2023-02-28T17:47:51;7.25;;;3.58;;
62256;SDS011;48240;52.962;5.790;2023-02-28T17:50:18;11.02;;;3.75;;
62256;SDS011;48240;52.962;5.790;2023-02-28T17:52:44;7.25;;;3.08;;
62256;SDS011;48240;52.962;5.790;2023-02-28T17:55:11;5.65;;;3.25;;
62256;SDS011;48240;52.962;5.790;2023-02-28T17:57:37;9.10;;;3.50;;
62256;SDS011;48240;52.962;5.790;2023-02-28T18:00:03;5.88;;;2.75;;
62256;SDS011;48240;52.962;5.790;2023-02-28T18:02:33;7.65;;;3.10;;
62256;SDS011;48240;52.962;5.790;2023-02-28T18:04:59;5.88;;;3.25;;
62256;SDS011;48240;52.962;5.790;2023-02-28T18:07:25;7.25;;;3.03;;
62256;SDS011;48240;52.962;5.790;2023-02-28T18:09:51;4.68;;;3.00;;
62256;SDS011;48240;52.962;5.790;2023-02-28T18:12:17;7.00;;;3.10;;
62256;SDS011;48240;52.962;5.790;2023-02-28T18:14:43;6.13;;;2.70;;
62256;SDS011;48240;52.962;5.790;2023-02-28T18:17:11;5.07;;;2.75;;
62256;SDS011;48240;52.962;5.790;2023-02-28T18:19:37;8.43;;;2.92;;
62256;SDS011;48240;52.962;5.790;2023-02-28T18:22:04;4.97;;;3.47;;
62256;SDS011;48240;52.962;5.790;2023-02-28T18:24:33;4.82;;;2.75;;
62256;SDS011;48240;52.962;5.790;2023-02-28T18:27:00;6.65;;;2.65;;
62256;SDS011;48240;52.962;5.790;2023-02-28T18:29:27;6.82;;;2.70;;
62256;SDS011;48240;52.962;5.790;2023-02-28T18:31:54;3.60;;;2.63;;
62256;SDS011;48240;52.962;5.790;2023-02-28T18:34:21;4.25;;;2.67;;
62256;SDS011;48240;52.962;5.790;2023-02-28T18:36:47;3.35;;;2.58;;
62256;SDS011;48240;52.962;5.790;2023-02-28T18:39:15;4.07;;;2.45;;
62256;SDS011;48240;52.962;5.790;2023-02-28T18:41:41;4.32;;;2.60;;
62256;SDS011;48240;52.962;5.790;2023-02-28T18:44:07;3.45;;;2.38;;
62256;SDS011;48240;52.962;5.790;2023-02-28T18:46:34;3.67;;;2.42;;
62256;SDS011;48240;52.962;5.790;2023-02-28T18:49:00;6.38;;;2.50;;
62256;SDS011;48240;52.962;5.790;2023-02-28T18:51:27;4.05;;;2.50;;
62256;SDS011;48240;52.962;5.790;2023-02-28T18:53:53;7.75;;;2.88;;
62256;SDS011;48240;52.962;5.790;2023-02-28T18:56:20;6.95;;;3.45;;
62256;SDS011;48240;52.962;5.790;2023-02-28T18:58:50;6.25;;;3.05;;
62256;SDS011;48240;52.962;5.790;2023-02-28T19:01:18;5.20;;;2.65;;
62256;SDS011;48240;52.962;5.790;2023-02-28T19:03:45;7.68;;;2.95;;
62256;SDS011;48240;52.962;5.790;2023-02-28T19:06:11;6.95;;;2.90;;
62256;SDS011;48240;52.962;5.790;2023-02-28T19:08:38;3.78;;;2.78;;
62256;SDS011;48240;52.962;5.790;2023-02-28T19:11:11;3.53;;;2.80;;
62256;SDS011;48240;52.962;5.790;2023-02-28T19:13:38;4.05;;;2.55;;
62256;SDS011;48240;52.962;5.790;2023-02-28T19:16:04;4.35;;;2.55;;
62256;SDS011;48240;52.962;5.790;2023-02-28T19:18:31;3.53;;;2.67;;
62256;SDS011;48240;52.962;5.790;2023-02-28T19:20:57;6.65;;;2.60;;
62256;SDS011;48240;52.962;5.790;2023-02-28T19:23:23;5.60;;;2.53;;
62256;SDS011;48240;52.962;5.790;2023-02-28T19:25:50;2.88;;;2.40;;
62256;SDS011;48240;52.962;5.790;2023-02-28T19:28:16;6.80;;;2.30;;
62256;SDS011;48240;52.962;5.790;2023-02-28T19:30:48;4.88;;;2.97;;
62256;SDS011;48240;52.962;5.790;2023-02-28T19:33:17;4.85;;;2.60;;
62256;SDS011;48240;52.962;5.790;2023-02-28T19:35:43;4.88;;;2.40;;
62256;SDS011;48240;52.962;5.790;2023-02-28T19:38:09;5.75;;;2.47;;
62256;SDS011;48240;52.962;5.790;2023-02-28T19:40:35;4.00;;;2.50;;
62256;SDS011;48240;52.962;5.790;2023-02-28T19:43:01;4.85;;;2.63;;
62256;SDS011;48240;52.962;5.790;2023-02-28T19:45:27;4.03;;;2.60;;
62256;SDS011;48240;52.962;5.790;2023-02-28T19:47:54;3.80;;;2.60;;
62256;SDS011;48240;52.962;5.790;2023-02-28T19:50:21;5.82;;;2.72;;
62256;SDS011;48240;52.962;5.790;2023-02-28T19:52:47;4.15;;;2.60;;
62256;SDS011;48240;52.962;5.790;2023-02-28T19:55:16;5.00;;;2.70;;
62256;SDS011;48240;52.962;5.790;2023-02-28T19:57:42;4.47;;;2.83;;
62256;SDS011;48240;52.962;5.790;2023-02-28T20:00:09;6.57;;;3.10;;
62256;SDS011;48240;52.962;5.790;2023-02-28T20:02:36;4.40;;;2.60;;
62256;SDS011;48240;52.962;5.790;2023-02-28T20:05:02;6.55;;;2.67;;
62256;SDS011;48240;52.962;5.790;2023-02-28T20:07:28;5.32;;;3.08;;
62256;SDS011;48240;52.962;5.790;2023-02-28T20:09:56;9.82;;;2.70;;
62256;SDS011;48240;52.962;5.790;2023-02-28T20:12:22;5.97;;;3.08;;
62256;SDS011;48240;52.962;5.790;2023-02-28T20:14:50;7.78;;;2.67;;
62256;SDS011;48240;52.962;5.790;2023-02-28T20:17:16;8.70;;;2.90;;
62256;SDS011;48240;52.962;5.790;2023-02-28T20:19:43;4.03;;;2.65;;
62256;SDS011;48240;52.962;5.790;2023-02-28T20:22:09;3.53;;;2.65;;
62256;SDS011;48240;52.962;5.790;2023-02-28T20:24:35;4.25;;;2.90;;
62256;SDS011;48240;52.962;5.790;2023-02-28T20:27:02;3.42;;;2.58;;
62256;SDS011;48240;52.962;5.790;2023-02-28T20:29:28;3.90;;;2.67;;
62256;SDS011;48240;52.962;5.790;2023-02-28T20:31:54;4.50;;;2.90;;
62256;SDS011;48240;52.962;5.790;2023-02-28T20:34:21;4.53;;;2.88;;
62256;SDS011;48240;52.962;5.790;2023-02-28T20:36:48;5.32;;;2.65;;
62256;SDS011;48240;52.962;5.790;2023-02-28T20:39:14;5.47;;;2.90;;
62256;SDS011;48240;52.962;5.790;2023-02-28T20:41:40;6.13;;;3.00;;
62256;SDS011;48240;52.962;5.790;2023-02-28T20:44:08;4.63;;;2.92;;
62256;SDS011;48240;52.962;5.790;2023-02-28T20:46:36;6.15;;;3.00;;
62256;SDS011;48240;52.962;5.790;2023-02-28T20:49:02;4.90;;;2.90;;
62256;SDS011;48240;52.962;5.790;2023-02-28T20:51:28;4.30;;;2.70;;
62256;SDS011;48240;52.962;5.790;2023-02-28T20:53:55;4.05;;;3.00;;
62256;SDS011;48240;52.962;5.790;2023-02-28T20:56:21;5.40;;;3.10;;
62256;SDS011;48240;52.962;5.790;2023-02-28T20:58:48;4.65;;;2.88;;
62256;SDS011;48240;52.962;5.790;2023-02-28T21:01:19;6.07;;;3.22;;
62256;SDS011;48240;52.962;5.790;2023-02-28T21:03:53;3.88;;;2.88;;
62256;SDS011;48240;52.962;5.790;2023-02-28T21:06:21;3.65;;;2.88;;
62256;SDS011;48240;52.962;5.790;2023-02-28T21:08:47;7.63;;;3.60;;
62256;SDS011;48240;52.962;5.790;2023-02-28T21:11:15;4.75;;;3.03;;
62256;SDS011;48240;52.962;5.790;2023-02-28T21:13:42;4.80;;;3.00;;
62256;SDS011;48240;52.962;5.790;2023-02-28T21:16:12;5.75;;;3.53;;
62256;SDS011;48240;52.962;5.790;2023-02-28T21:18:39;7.13;;;3.93;;
62256;SDS011;48240;52.962;5.790;2023-02-28T21:21:06;4.47;;;3.22;;
62256;SDS011;48240;52.962;5.790;2023-02-28T21:23:32;5.80;;;3.75;;
62256;SDS011;48240;52.962;5.790;2023-02-28T21:26:02;6.55;;;3.80;;
62256;SDS011;48240;52.962;5.790;2023-02-28T21:28:29;7.45;;;4.35;;
62256;SDS011;48240;52.962;5.790;2023-02-28T21:31:02;5.68;;;4.00;;
62256;SDS011;48240;52.962;5.790;2023-02-28T21:33:29;6.43;;;3.95;;
62256;SDS011;48240;52.962;5.790;2023-02-28T21:35:59;5.50;;;3.90;;
62256;SDS011;48240;52.962;5.790;2023-02-28T21:38:26;5.97;;;4.10;;
62256;SDS011;48240;52.962;5.790;2023-02-28T21:40:52;6.22;;;4.32;;